OC445:April 27-May6, 2008                                          
Station Year Month Day Local Decimal Decimal Bottom  Sampling Chlorophyll a Phaeo-pigments Salinity Sigma theta Pressure Temperature Conductivity Fluor Transmittance PAR Oxygen NO3+NO2 Si(OH)4 NH4 PO4
      Time Latitude Longitude Depth(m) Depth(m) (ug/L) (ug/L) Sal00 Sigma-00 (db) T090 C0S/m Upoly0 Xmiss Par Sbeox1ML/L (uM) (uM) (uM) (uM)
                                             
1 2008 4 28 2350 40.793 -69.229 52 40 14.14 2.87 32.7008 25.7328 39.912 6.0299 3.236757 6.5676 59.0202 8.34E-02 3.0405 0.96 5.95 0.67 0.31
1 2008 4 28 2350 40.793 -69.229 52 30 14.20 0.00 32.6982 25.73 30.094 6.0356 3.236594 6.928 60.4598 8.34E-02 3.0426 0.76 5.96 0.46 0.40
1 2008 4 28 2350 40.793 -69.229 52 20 10.62 1.81 32.6977 25.7292 19.761 6.0375 3.236254 6.4213 59.1019 8.38E-02 3.0449 0.39 6.02 0.62 0.29
1 2008 4 28 2350 40.793 -69.229 52 10 11.96 0.90 32.6883 25.7167 10.82 6.078 3.238516 6.3451 62.976 8.74E-02 3.0339 0.09 6.53 0.76 0.41
1 2008 4 28 2350 40.793 -69.229 52 1 11.17 1.36 32.6877 25.7154 1.583 6.0845 3.238623 6.3105 61.1434 1.42E+00 3.0324 0.09 7.27 0.01 0.29
2 2008 4 29 0115 40.646 -69.129 69 50     32.7908 25.7625 48.325 6.3624 3.273941 0.6036 84.117 8.34E-02 2.78 0.09 0.17 0.44 0.23
2 2008 4 29 0115 40.646 -69.129 69 40 7.22 0.00 32.788 25.7606 39.457 6.3591 3.273025 0.5625 84.2568 8.32E-02 2.7881 0.09 0.22 0.01 0.26
2 2008 4 29 0115 40.646 -69.129 69 30 7.04 0.01 32.7817 25.7551 28.379 6.3623 3.272247 0.7011 83.8215 8.34E-02 2.7945 0.09 0.44 0.33 0.19
2 2008 4 29 0115 40.646 -69.129 69 20 5.41 0.01 32.7446 25.6884 20.127 6.6534 3.293788 0.7145 83.56 8.55E-02 2.8292 0.09 0.63 0.17 0.20
2 2008 4 29 0115 40.646 -69.129 69 10 5.13 0.00 32.7235 25.6246 9.21 7.0097 3.322356 0.494 84.5248 9.64E-02 2.8071 0.09 0.90 0.00 0.16
2 2008 4 29 0115 40.646 -69.129 69 1 4.90 0.01 32.7227 25.6226 3.44 7.02 3.322928 0.5009 84.4612 2.90E-01 2.8051 0.09 0.88 0.01 0.20
3 2008 4 29 0245 40.501 -69.027 70 50     32.7563 25.8722 50.445 5.2226 3.172732 0.2913 85.937 8.39E-02 2.5101 4.73 6.77 0.98 0.36
3 2008 4 29 0245 40.501 -69.027 70 40 1.32 0.44 32.7484 25.8661 39.56 5.2198 3.171323 0.3318 85.9672 8.33E-02 2.5183 4.31 5.60 0.75 0.55
3 2008 4 29 0245 40.501 -69.027 70 30 2.79 0.00 32.5931 25.6744 28.447 5.8094 3.207694 0.6432 83.7985 8.40E-02 2.7219 0.65 1.46 0.49 0.36
3 2008 4 29 0245 40.501 -69.027 70 20 4.86 0.01 32.4596 25.4186 19.02 6.9974 3.297545 1.3718 76.3292 8.56E-02 2.7827 0.16 1.53 0.08 0.25
3 2008 4 29 0245 40.501 -69.027 70 10 5.11 0.00 32.4583 25.4138 8.28 7.025 3.299345 1.4164 76.3593 8.92E-02 2.7828 0.01 1.76 0.01 0.24
3 2008 4 29 0245 40.501 -69.027 70 1 5.45 0.01 32.4594 25.4151 3.042 7.0216 3.298921 1.3412 76.3275 2.76E-01 2.7852 0.09 1.58 0.09 0.21
4 2008 4 29 0423 40.354 -68.924 89 50     33.4626 26.1546 51.622 7.3906 3.425661 0.2183 85.9809 8.32E-02 2.4935 5.00 5.15 0.03 0.42
4 2008 4 29 0423 40.354 -68.924 89 40 0.31 0.41 33.1821 26.108 39.543 6.0695 3.283148 0.1824 86.4912 8.32E-02 2.4572 5.87 6.36 0.45 0.60
4 2008 4 29 0423 40.354 -68.924 89 30 0.61 0.24 32.9528 26.0185 29.851 5.3018 3.195823 0.1831 86.7357 8.41E-02 2.4763 5.61 6.20 0.64 0.57
4 2008 4 29 0423 40.354 -68.924 89 20 0.83 0.05 32.9781 26.0066 18.491 5.5754 3.221182 0.2472 86.1618 1.01E-01 2.5049 4.82 5.45 0.01 0.59
4 2008 4 29 0423 40.354 -68.924 89 10 0.67 0.10 32.9501 25.9994 10.054 5.4474 3.207281 0.2576 86.4693 1.77E-01 2.5118 5.15 6.66 0.68 0.49
4 2008 4 29 0423 40.354 -68.924 89 1 0.52 0.26 32.9603 25.9896 3.515 5.5987 3.220961 0.2722 86.3685 1.76E+00 2.5237 4.97 5.01 1.61 0.49
5 2008 4 29 0548 40.207 -68.815 120 100     35.2744 26.6506 101.1 12.7891 4.109168 0.1418 86.8591 8.32E-02 2.2743 6.87 4.38 0.63 0.34
5 2008 4 29 0548 40.207 -68.815 120 50     34.7742 26.3603 47.647 12.284 4.006092 0.4276 85.0182 8.32E-02 2.534 2.71 2.41 0.47 0.18
5 2008 4 29 0548 40.207 -68.815 120 40 0.97 0.25 35.2404 26.3054 40.079 14.3239 4.253159 0.7457 82.1994 1.02E-01 2.5701 1.49 1.59 0.05 0.10
5 2008 4 29 0548 40.207 -68.815 120 30 1.82 0.00 35.3702 26.2976 30.906 14.8217 4.315999 0.8021 81.8161 1.91E-01 2.5758 1.10 1.21 0.02 0.08
5 2008 4 29 0548 40.207 -68.815 120 20 2.36 0.01 35.4859 26.2816 21.261 15.2963 4.375433 0.8068 81.246 5.00E-01 2.5777 0.66 1.19 0.11 0.04
5 2008 4 29 0548 40.207 -68.815 120 10 2.39 0.00 35.585 26.2703 11.673 15.6844 4.42477 0.7724 81.4352 1.14E+00 2.5781 0.55 0.98 0.01 0.16
5 2008 4 29 0548 40.207 -68.815 120 1 2.48 0.01 35.6139 26.2664 2.992 15.7979 4.438962 0.8103 81.3749 3.76E+00 2.5765 0.59 0.78 0.01 0.05
6 2008 4 29 0856 40.353 -68.215 141 136     35.3048 26.7937 136.778 12.1855 4.055234 0.0779 86.7412 8.32E-02 2.0117 12.18 7.28 0.12 0.56
6 2008 4 29 0856 40.353 -68.215 141 100     35.2893 26.7419 98.998 12.3849 4.071303 0.0757 86.8805 8.32E-02 2.09 9.74 5.55 0.01 0.46
6 2008 4 29 0856 40.353 -68.215 141 50     34.344 26.344 51.151 10.5597 3.799382 0.369 85.7271 9.38E-01 2.4997 4.65 3.40 0.01 0.36
6 2008 4 29 0856 40.353 -68.215 141 40 1.20 0.15 34.9386 26.2953 40.359 13.2533 4.116372 0.4334 84.9798 2.46E+00 2.5503 2.58 3.98 0.05 0.25
6 2008 4 29 0856 40.353 -68.215 141 30 2.25 0.01 35.0544 26.2554 27.942 13.8788 4.188983 0.5883 83.5803 7.73E+00 2.5704 1.90 1.80 0.01 0.15
6 2008 4 29 0856 40.353 -68.215 141 20 1.64 0.18 35.1071 26.2197 20.5 14.2398 4.229641 0.6385 82.9197 1.63E+01 2.6003 2.32 2.00 0.01 0.31
6 2008 4 29 0856 40.353 -68.215 141 10 1.56 0.39 34.6661 26.2169 10.053 12.5845 4.022015 0.7152 82.7185 5.21E+01 2.6057 1.87 2.96 0.01 0.14
6 2008 4 29 0856 40.353 -68.215 141 1 1.86 0.00 32.9749 25.8373 2.657 6.8991 3.335385 0.5294 84.1246 1.65E+02 2.6731 1.49 1.34 0.01 0.09
7 2008 4 29 1109 40.509 -68.331 93 85     32.8601 25.9488 89.03 5.2743 3.187947 0.2606 85.5977 9.79E-02 2.5233 3.10 3.45 0.80 0.59
7 2008 4 29 1109 40.509 -68.331 93 50     32.8348 25.9298 51.076 5.2625 3.183049 0.2529 85.7188 1.24E+00 2.5338 3.36 3.21 1.06 0.45
7 2008 4 29 1109 40.509 -68.331 93 40 1.01 0.00 32.8086 25.9216 40.652 5.1516 3.170785 0.3044 86.0033 3.22E+00 2.5432 4.06 4.01 1.19 0.53
7 2008 4 29 1109 40.509 -68.331 93 30 1.34 0.00 32.5286 25.6581 29.424 5.5156 3.176879 0.493 84.9837 8.69E+00 2.697 2.37 2.45 1.03 0.35
7 2008 4 29 1109 40.509 -68.331 93 20 1.76 0.01 32.3549 25.4628 19.957 6.0026 3.202636 0.4101 84.4234 2.30E+01 2.7725 1.07 0.93 0.61 0.24
7 2008 4 29 1109 40.509 -68.331 93 10 1.57 0.00 32.3546 25.4565 9.652 6.0521 3.206394 0.4264 84.3796 7.72E+01 2.7725 1.11 0.71 0.62 0.28
7 2008 4 29 1109 40.509 -68.331 93 1 1.32 0.00 32.3488 25.4523 2.928 6.0481 3.205238 0.3539 84.2721 2.09E+02 2.7804 1.03 0.44 0.65 0.25
8 2008 4 29 1222 40.657 -68.440 67 50     32.8124 25.8415 51.172 5.8631 3.232809 0.5041 83.418 2.80E-01 2.5964 2.27 2.71 0.58 0.29
8 2008 4 29 1222 40.657 -68.440 67 40 3.62 0.01 32.8144 25.8366 41.959 5.9152 3.237079 0.4937 83.3034 8.69E-01 2.6114 2.23 2.53 0.17 0.33
8 2008 4 29 1222 40.657 -68.440 67 30 4.06 0.00 32.8163 25.823 30.919 6.038 3.247381 0.5375 83.4065 3.48E+00 2.6262 1.60 1.78 0.63 0.24
8 2008 4 29 1222 40.657 -68.440 67 20 2.43 0.00 32.8163 25.7982 19.786 6.2363 3.264054 0.5957 83.2294 1.78E+01 2.6492 1.08 2.23 0.91 0.28
8 2008 4 29 1222 40.657 -68.440 67 10 2.37 0.05 32.7041 25.6498 9.703 6.7036 3.294006 0.7655 81.706 8.41E+01 2.7027 0.70 1.52 0.03 0.20
8 2008 4 29 1222 40.657 -68.440 67 1 8.31 0.01 32.6387 25.5488 3.921 7.0763 3.320141 0.7729 81.3655 2.27E+02 2.7379 0.72 1.59 0.30 0.22
9 2008 4 29 1350 40.806 -68.551 53 40 7.59 0.00 32.8439 25.7563 41.489 6.735 3.310836 0.5848 83.1373 2.52E-01 2.7399 0.55 0.41 0.02 0.14
9 2008 4 29 1350 40.806 -68.551 53 30 8.92 0.01 32.8435 25.7556 30.274 6.7359 3.310377 0.6165 83.0957 1.28E+00 2.7523 0.32 0.53 0.02 0.16
9 2008 4 29 1350 40.806 -68.551 53 20 7.63 0.00 32.8434 25.7554 19.454 6.7367 3.309964 0.5695 83.0606 7.08E+00 2.7526 0.83 0.13 0.01 0.16
9 2008 4 29 1350 40.806 -68.551 53 10 8.01 0.00 32.8319 25.7309 10.092 6.8528 3.318628 0.7076 82.6396 3.83E+01 2.7688 0.52 0.47 0.01 0.14
9 2008 4 29 1350 40.806 -68.551 53 1 6.18 0.00 32.8317 25.7313 4.046 6.848 3.317923 0.6172 82.6916 2.28E+02 2.7759 0.58 0.19 0.01 0.08
10 2008 4 29 1513 40.954 -68.656 56 40 6.68 0.01 32.9024 25.7723 44.04 6.962 3.336084 0.711 79.9309 8.75E-02 2.6653 0.39 0.37 0.01 0.10
10 2008 4 29 1513 40.954 -68.656 56 30 5.52 0.01 32.903 25.773 32.457 6.9586 3.335333 0.7598 79.1546 1.99E-01 2.6699 0.48 0.55 0.38 0.05
10 2008 4 29 1513 40.954 -68.656 56 20 4.45 0.16 32.9014 25.7703 23.177 6.9692 3.335707 0.7063 80.7006 7.11E-01 2.672 0.44 0.97 0.12 0.11
10 2008 4 29 1513 40.954 -68.656 56 10 5.70 0.00 32.9021 25.7714 11.975 6.9639 3.334815 0.7459 80.3091 6.57E+00 2.6711 0.61 0.38 0.01 0.26
10 2008 4 29 1513 40.954 -68.656 56 1 8.07 0.01 32.9011 25.7702 2.496 6.966 3.334493 0.7573 80.1524 7.23E+01 2.6776 0.42 0.15 0.01 0.15
11 2008 4 29 1622 41.112 -68.770 67 50     32.845 25.754 51.763 6.7594 3.313507 0.6187 81.172 9.36E-02 2.7358 0.55 0.29 0.01 0.16
11 2008 4 29 1622 41.112 -68.770 67 40 9.22 0.01 32.8443 25.752 40.64 6.7692 3.313808 0.5506 81.5777 2.41E-01 2.7405 0.04 0.20 0.01 0.14
11 2008 4 29 1622 41.112 -68.770 67 30 8.44 0.01 32.8448 25.7532 29.675 6.7624 3.312777 0.567 81.5064 1.35E+00 2.7424 0.20 0.15 0.01 0.12
11 2008 4 29 1622 41.112 -68.770 67 20 8.68 0.01 32.8436 25.7506 20.604 6.7738 3.31327 0.47 81.6638 6.74E+00 2.7453 0.32 0.20 0.01 0.32
11 2008 4 29 1622 41.112 -68.770 67 10 4.15 0.00 32.8324 25.7372 9.975 6.8082 3.314774 0.4813 81.7482 4.49E+01 2.7511 0.48 0.46 0.01 0.12
11 2008 4 29 1622 41.112 -68.770 67 1 8.07 0.01 32.8241 25.729 3.174 6.8202 3.314774 0.5524 81.7931 3.12E+02 2.753 0.34 0.36 0.16 0.31
12 2008 4 29 1745 41.246 -68.865 67 90     32.9136 25.9786 89.462 5.3834 3.202047 3.5048 67.8145 8.34E-02 2.5649 6.64 8.45 0.14 0.48
12 2008 4 29 1745 41.246 -68.865 67 50     32.8325 25.8557 49.131 5.8766 3.235671 1.3063 78.9096 8.87E-02 2.7421 2.69 3.89 0.61 0.36
12 2008 4 29 1745 41.246 -68.865 67 40 6.49 0.38 32.792 25.8053 41.034 6.0267 3.244685 1.6671 76.1362 1.07E-01 2.8135 1.74 4.13 0.14 0.30
12 2008 4 29 1745 41.246 -68.865 67 30 8.01 0.00 32.7813 25.7889 31.127 6.0896 3.24872 1.8946 75.2278 2.24E-01 2.8198 1.35 3.33 0.09 0.29
12 2008 4 29 1745 41.246 -68.865 67 20 6.68 0.01 32.7669 25.7613 21.285 6.2204 3.258319 1.5241 76.7782 9.39E-01 2.8336 1.23 4.78 0.20 0.28
12 2008 4 29 1745 41.246 -68.865 67 10 6.25 0.01 32.7659 25.7558 10.716 6.2563 3.260875 2.0245 76.2546 6.63E+00 2.8467 0.98 5.76 0.01 0.31
12 2008 4 29 1745 41.246 -68.865 67 1 5.52 0.37 32.7663 25.7552 3.658 6.2631 3.261179 1.7971 75.8808 4.06E+01 2.8527 1.38 5.99 0.01 0.36
13 2008 4 29 2016 41.610 -68.575 139 132     33.2055 26.2226 132.964 5.2746 3.220137 1.0553 77.8894 8.96E-02 2.2916 11.72 12.52 0.27 0.82
13 2008 4 29 2016 41.610 -68.575 139 100     32.9561 26.0291 99.823 5.2375 3.193651 0.714 81.6429 8.35E-02 2.4733 7.25 8.53 0.13 0.74
13 2008 4 29 2016 41.610 -68.575 139 50     32.8708 25.9235 50.063 5.5619 3.211939 0.7095 83.3736 8.43E-02 2.6303 3.98 3.43 0.26 0.53
13 2008 4 29 2016 41.610 -68.575 139 40 2.32 0.00 32.8437 25.8946 41.959 5.6251 3.214635 0.3702 85.8175 8.32E-02 2.7765 2.63 3.34 0.07 0.37
13 2008 4 29 2016 41.610 -68.575 139 30 1.41 0.28 32.8272 25.8367 28.551 5.9958 3.2446 0.2987 85.5346 8.39E-02 2.8024 1.27 2.25 0.01 0.38
13 2008 4 29 2016 41.610 -68.575 139 20 1.69 0.00 32.8045 25.7313 19.897 6.6867 3.302105 0.2977 84.4821 8.62E-02 2.8139 0.81 1.01 0.01 0.13
13 2008 4 29 2016 41.610 -68.575 139 10 1.58 0.06 32.8059 25.7317 8.877 6.6908 3.302105 0.345 84.4903 1.62E-01 2.8167 0.48 1.11 0.01 0.20
13 2008 4 29 2016 41.610 -68.575 139 1 1.85 0.00 32.8041 25.73 2.509 6.6927 3.301825 0.3141 81.0892 1.48E+00 2.8138 0.64 1.24 0.01 0.20
14 2008 4 29 2137 41.461 -68.481 82 75     32.8657 25.9004 77.385 5.7253 3.226784 0.4989 83.4586 8.34E-02 2.6076 3.15 2.26 0.60 0.44
14 2008 4 29 2137 41.461 -68.481 82 50     32.8635 25.8945 48.96 5.7575 3.228128 0.4861 84.1362 8.32E-02 2.6229 2.83 1.95 0.93 0.37
14 2008 4 29 2137 41.461 -68.481 82 40 1.95 0.02 32.8565 25.8652 39.706 5.9535 3.244044 0.3299 84.7606 8.32E-02 2.6651 1.74 1.48 0.56 0.38
14 2008 4 29 2137 41.461 -68.481 82 30 0.66 0.23 32.8532 25.8334 30.838 6.1886 3.26372 0.171 85.4666 8.37E-02 2.7323 1.01 0.56 1.81 0.33
14 2008 4 29 2137 41.461 -68.481 82 20 2.18 0.22 32.8415 25.7635 19.964 6.6628 3.303386 0.3135 84.464 8.79E-02 2.7488 0.58 0.59 1.48 0.25
14 2008 4 29 2137 41.461 -68.481 82 10 2.94 0.01 32.8408 25.7601 10.504 6.6843 3.304773 0.3222 84.3352 1.40E-01 2.7519 0.56 0.66 0.01 0.29
14 2008 4 29 2137 41.461 -68.481 82 1 3.44 0.01 32.8414 25.761 3.388 6.6802 3.304162 0.3222 84.2496 1.14E+00 2.7567 0.58 0.70 0.01 0.22
15 2008 4 29 2245 41.313 -68.373 44 40 2.53 0.71 32.914 25.7817 41.308 6.9594 3.336796 0.5385 79.1601 8.33E-02 2.6026 0.49 1.00 0.01 0.18
15 2008 4 29 2245 41.313 -68.373 44 30 3.81 0.26 32.9131 25.7814 30.634 6.9553 3.335881 0.5081 79.4649 8.34E-02 2.6083 0.53 0.67 0.04 0.20
15 2008 4 29 2245 41.313 -68.373 44 20 3.14 0.00 32.9083 25.7801 20.894 6.936 3.333336 0.4507 80.3234 8.63E-02 2.6186 0.34 0.67 0.01 0.17
15 2008 4 29 2245 41.313 -68.373 44 10 1.62 0.70 32.9013 25.7781 10.683 6.9085 3.329846 0.4427 80.9736 1.32E-01 2.6237 0.60 0.70 0.20 0.19
15 2008 4 29 2245 41.313 -68.373 44 1 2.34 0.51 32.8994 25.7777 2.562 6.8996 3.328529 0.4613 80.8924 1.34E+00 2.6268 0.65 0.73 0.01 0.13
16 2008 4 30 0005 41.174 -68.282 40 30 1.27 0.96 32.9423 25.7867 33.826 7.0874 3.350263 0.64 79.5274 8.33E-02 2.6048 0.28 0.30 0.01 0.17
16 2008 4 30 0005 41.174 -68.282 40 20 5.64 0.01 32.9412 25.7852 20.782 7.0905 3.349858 0.741 78.1065 8.35E-02 2.6097 0.21 0.37 0.01 0.16
16 2008 4 30 0005 41.174 -68.282 40 10 3.10 0.74 32.9419 25.7863 10.592 7.0855 3.349039 0.7232 79.7505 1.18E-01 2.6113 0.13 0.51 0.01 0.29
16 2008 4 30 0005 41.174 -68.282 40 1 4.19 0.72 32.9417 25.7861 3.392 7.0856 3.348715 0.6432 79.113 8.39E-01 2.6147 0.36 0.44 0.01 0.16
17 2008 4 30 0127 41.027 -68.162 47 30 7.16 0.01 32.9621 25.8061 32.973 7.0587 3.349519 0.6232 81.1134 8.33E-02 2.7045 0.64 0.39 1.37 0.07
17 2008 4 30 0127 41.027 -68.162 47 20 2.63 0.00 32.9662 25.8082 22.357 7.0664 3.350107 0.5712 80.8267 8.33E-02 2.7042 0.23 0.26 0.44 0.10
17 2008 4 30 0127 41.027 -68.162 47 10 5.12 0.01 32.965 25.8076 12.848 7.0633 3.349317 0.5531 81.2773 1.02E-01 2.7077 0.70 0.48 0.40 0.37
17 2008 4 30 0127 41.027 -68.162 47 1 5.33 0.00 32.9622 25.807 3.551 7.0508 3.347554 0.6081 81.6396 1.13E+00 2.7102 0.37 0.41 0.36 0.53
18 2008 4 30 0307 40.881 -68.054 50 40 1.76 3.24 32.808 25.8262 40.361 5.9587 3.240202 0.5197 81.2373 8.33E-02 2.6225 1.30 2.39 0.08 0.28
18 2008 4 30 0307 40.881 -68.054 50 30 4.22 0.01 32.8094 25.7926 30.28 6.2385 3.264094 0.5769 81.2866 8.34E-02 2.6438 1.04 1.81 0.78 0.65
18 2008 4 30 0307 40.881 -68.054 50 20 5.27 0.01 32.8155 25.7524 22.023 6.5913 3.294893 0.7108 81.2641 8.34E-02 2.6811 0.49 1.90 0.15 0.56
18 2008 4 30 0307 40.881 -68.054 50 10 6.04 0.01 32.8164 25.7518 12.434 6.6008 3.295392 0.6417 81.3644 1.08E-01 2.6866 0.48 1.36 0.01 0.48
18 2008 4 30 0307 40.881 -68.054 50 1 5.04 0.00 32.819 25.7486 3.404 6.64 3.298632 0.6506 81.3595 3.99E+00 2.6943 0.55 1.19 0.01 0.29
19 2008 4 30 0450 40.729 -67.950 77 62     32.7704 25.9188 61.293 4.9059 3.147335 0.1717 85.5308 8.32E-02 2.491 5.50 5.60 0.90 0.80
19 2008 4 30 0450 40.729 -67.950 77 50     32.7696 25.918 50.741 4.9064 3.146844 0.1757 85.6037 8.35E-02 2.4942 5.15 5.50 0.31 0.61
19 2008 4 30 0450 40.729 -67.950 77 40 0.66 0.54 32.7693 25.9175 42.727 4.908 3.146597 0.1571 85.7122 8.48E-02 2.4968 5.38 5.73 1.08 0.68
19 2008 4 30 0450 40.729 -67.950 77 30 0.79 0.68 32.732 25.8606 31.446 5.1535 3.163853 0.3259 85.3784 8.40E-02 2.5389 4.01 4.54 1.21 0.71
19 2008 4 30 0450 40.729 -67.950 77 20 3.02 1.01 32.4922 25.4405 22.828 7.0258 3.303159 1.0783 79.3196 9.39E-02 2.7176 0.80 2.27 1.11 0.93
19 2008 4 30 0450 40.729 -67.950 77 10 2.87 0.76 32.4736 25.4182 11.466 7.0821 3.305827 1.2285 78.954 1.61E-01 2.7187 0.57 2.36 0.01 0.45
19 2008 4 30 0450 40.729 -67.950 77 1 4.36 0.01 32.4623 25.405 0.87 7.1135 3.307044 1.1531 40.9793 6.86E+00 2.7171 0.42 2.34 0.02 0.56
20 2008 4 30 0610 40.581 -67.845 91 80     33.4185 26.1737 79.521 7.0024 3.388356 0.4596 84.4898 9.46E-02 2.44 6.81 5.23 0.01 0.82
20 2008 4 30 0610 40.581 -67.845 91 50     32.9764 26.0788 51.85 4.9341 3.167196 0.4534 85.3718 3.60E-01 2.4031 7.76 5.50 0.01 0.96
20 2008 4 30 0610 40.581 -67.845 91 40 1.09 0.58 32.9567 26.0661 40.872 4.9071 3.162684 0.3571 85.3373 9.60E-01 2.4143 8.32 5.59 0.01 0.51
20 2008 4 30 0610 40.581 -67.845 91 30 1.18 0.42 32.9162 26.0376 30.317 4.8735 3.155821 0.368 85.5873 2.82E+00 2.4489 7.90 5.73 0.23 0.65
20 2008 4 30 0610 40.581 -67.845 91 20 2.14 0.30 32.55 25.7305 20.251 5.0263 3.136645 0.5502 84.2546 7.96E+00 2.5839 3.64 1.49 0.18 0.63
20 2008 4 30 0610 40.581 -67.845 91 10 1.21 0.47 32.2609 25.4227 10.03 5.7171 3.169512 0.4497 84.0112 4.13E+01 2.7445 0.70 0.52 0.01 0.37
20 2008 4 30 0610 40.581 -67.845 91 1 1.67 0.00 32.2519 25.4167 2.392 5.7068 3.167511 0.4343 84.0123 1.76E+02 2.7482 1.00 0.62 0.02 0.59
21 2008 4 30 0730 40.436 -67.739 130 120     35.521 26.6692 119.962 13.6389 4.219265 0.0445 87.4446 8.84E-02 2.2479 6.70 3.56 0.32 0.15
21 2008 4 30 0730 40.436 -67.739 130 100     35.7279 26.6272 95.921 14.586 4.334352 0.0703 87.5257 1.96E-01 2.3242 5.99 4.45 0.46 0.47
21 2008 4 30 0730 40.436 -67.739 130 50     35.8088 26.3262 52.055 16.1981 4.50329 0.0562 87.4873 2.41E+00 2.1838 5.32 2.11 0.01 0.33
21 2008 4 30 0730 40.436 -67.739 130 40 0.93 0.06 35.5811 26.1343 42.393 16.2685 4.48438 0.265 85.9052 4.86E+00 2.3983 2.79 1.30 0.02 0.35
21 2008 4 30 0730 40.436 -67.739 130 30 1.53 0.24 35.1093 26.0418 28.517 15.0703 4.311944 0.5333 84.0282 1.70E+01 2.5508 1.41 0.95 0.24 0.18
21 2008 4 30 0730 40.436 -67.739 130 20 1.98 0.00 35.0227 26.0373 20.111 14.7842 4.273923 0.6019 83.9076 4.22E+01 2.573 1.27 0.93 0.15 0.43
21 2008 4 30 0730 40.436 -67.739 130 10 2.28 0.00 34.404 26.0417 9.369 12.4405 3.981041 0.6863 82.9685 2.05E+02 2.6068 1.04 0.77 0.01 0.36
21 2008 4 30 0730 40.436 -67.739 130 1 1.87 0.00 32.8522 25.7415 2.054 6.8925 3.32359 0.3759 82.8495 8.60E+02 2.674 1.39 0.80 0.00 0.31
22 2008 4 30 1030 40.574 -67.216 129 124     33.2905 26.2695 124.967 5.45 3.242481 0.3135 85.2808 8.36E-02 2.2964 9.55 7.67 0.01 0.63
22 2008 4 30 1030 40.574 -67.216 129 100     33.093 26.1588 101.114 5.0493 3.189419 0.2883 86.0154 8.48E-02 2.3472 8.45 5.97 0.01 0.76
22 2008 4 30 1030 40.574 -67.216 129 50     32.7618 25.9023 49.455 4.9931 3.153516 1.3097 81.8458 6.76E-01 2.5599 3.32 1.89 0.01 0.96
22 2008 4 30 1030 40.574 -67.216 129 40 7.22 0.00 32.3349 25.5803 40.456 4.8417 3.103187 1.3664 79.8026 2.06E+00 2.7347 1.51 0.31 0.01 0.32
22 2008 4 30 1030 40.574 -67.216 129 30 6.83 0.00 32.2883 25.5467 30.397 4.8101 3.096044 1.1674 81.6709 6.74E+00 2.7697 1.01 0.03 0.02 0.31
22 2008 4 30 1030 40.574 -67.216 129 20 3.93 0.06 32.2863 25.5429 20.135 4.8303 3.097129 1.2632 81.5985 1.83E+01 2.7861 0.74 0.77 0.01 0.27
22 2008 4 30 1030 40.574 -67.216 129 10 5.48 0.01 32.2906 25.5326 10.776 4.9563 3.107727 0.6323 81.6742 6.20E+01 2.7937 1.11 0.04 0.02 0.14
22 2008 4 30 1030 40.574 -67.216 129